sensor_id;sensor_type;location;lat;lon;timestamp;P1;P2;P0
51320;PMS5003;38732;49.556;6.286;2022-12-29T00:00:08;6.00;6.00;3.50
51320;PMS5003;38732;49.556;6.286;2022-12-29T00:02:37;5.00;3.00;2.00
51320;PMS5003;38732;49.556;6.286;2022-12-29T00:05:05;3.00;3.00;2.00
51320;PMS5003;38732;49.556;6.286;2022-12-29T00:07:34;1.00;1.00;0.00
51320;PMS5003;38732;49.556;6.286;2022-12-29T00:10:02;4.00;4.00;2.00
51320;PMS5003;38732;49.556;6.286;2022-12-29T00:12:31;7.25;7.25;3.50
51320;PMS5003;38732;49.556;6.286;2022-12-29T00:14:59;3.00;3.00;2.00
51320;PMS5003;38732;49.556;6.286;2022-12-29T00:17:27;2.50;2.50;0.75
51320;PMS5003;38732;49.556;6.286;2022-12-29T00:19:55;9.25;5.50;2.25
51320;PMS5003;38732;49.556;6.286;2022-12-29T00:22:24;5.75;3.50;2.00
51320;PMS5003;38732;49.556;6.286;2022-12-29T00:24:52;2.75;2.00;1.00
51320;PMS5003;38732;49.556;6.286;2022-12-29T00:27:21;8.00;5.00;2.75
51320;PMS5003;38732;49.556;6.286;2022-12-29T00:29:49;5.50;5.50;2.50
51320;PMS5003;38732;49.556;6.286;2022-12-29T00:32:17;2.50;2.50;1.75
51320;PMS5003;38732;49.556;6.286;2022-12-29T00:34:45;7.75;7.25;4.00
51320;PMS5003;38732;49.556;6.286;2022-12-29T00:37:13;5.00;5.00;2.50
51320;PMS5003;38732;49.556;6.286;2022-12-29T00:39:42;5.00;5.00;2.25
51320;PMS5003;38732;49.556;6.286;2022-12-29T00:42:10;4.25;2.75;2.00
51320;PMS5003;38732;49.556;6.286;2022-12-29T00:44:38;2.00;2.00;1.00
51320;PMS5003;38732;49.556;6.286;2022-12-29T00:47:06;5.75;4.75;2.50
51320;PMS5003;38732;49.556;6.286;2022-12-29T00:49:34;4.50;4.50;2.00
51320;PMS5003;38732;49.556;6.286;2022-12-29T00:52:04;3.50;0.00;0.00
51320;PMS5003;38732;49.556;6.286;2022-12-29T00:54:34;3.80;3.80;1.40
51320;PMS5003;38732;49.556;6.286;2022-12-29T00:57:05;6.00;5.00;3.00
51320;PMS5003;38732;49.556;6.286;2022-12-29T00:59:35;5.60;5.40;1.80
51320;PMS5003;38732;49.556;6.286;2022-12-29T01:02:04;5.40;4.20;2.00
51320;PMS5003;38732;49.556;6.286;2022-12-29T01:04:33;5.00;5.00;2.00
51320;PMS5003;38732;49.556;6.286;2022-12-29T01:07:01;5.75;4.50;3.00
51320;PMS5003;38732;49.556;6.286;2022-12-29T01:09:30;6.50;5.00;2.00
51320;PMS5003;38732;49.556;6.286;2022-12-29T01:11:59;5.80;5.20;2.00
51320;PMS5003;38732;49.556;6.286;2022-12-29T01:14:27;5.50;5.50;3.00
51320;PMS5003;38732;49.556;6.286;2022-12-29T01:16:55;5.00;5.00;3.00
51320;PMS5003;38732;49.556;6.286;2022-12-29T01:19:24;5.75;5.75;3.00
51320;PMS5003;38732;49.556;6.286;2022-12-29T01:21:53;6.20;5.80;5.00
51320;PMS5003;38732;49.556;6.286;2022-12-29T01:24:21;11.00;6.50;3.50
51320;PMS5003;38732;49.556;6.286;2022-12-29T01:26:49;6.75;6.75;5.00
51320;PMS5003;38732;49.556;6.286;2022-12-29T01:29:17;9.25;9.25;5.00
51320;PMS5003;38732;49.556;6.286;2022-12-29T01:31:46;8.00;8.00;4.00
51320;PMS5003;38732;49.556;6.286;2022-12-29T01:34:14;5.50;5.50;4.00
51320;PMS5003;38732;49.556;6.286;2022-12-29T01:36:42;5.75;5.75;3.00
51320;PMS5003;38732;49.556;6.286;2022-12-29T01:39:10;8.00;7.00;5.25
51320;PMS5003;38732;49.556;6.286;2022-12-29T01:41:39;8.00;6.00;4.00
51320;PMS5003;38732;49.556;6.286;2022-12-29T01:47:16;9.20;6.80;5.00
51320;PMS5003;38732;49.556;6.286;2022-12-29T01:49:52;5.60;5.60;4.20
51320;PMS5003;38732;49.556;6.286;2022-12-29T01:52:24;6.40;6.40;5.00
51320;PMS5003;38732;49.556;6.286;2022-12-29T01:54:56;10.20;7.00;5.00
51320;PMS5003;38732;49.556;6.286;2022-12-29T01:57:27;5.20;5.20;3.40
51320;PMS5003;38732;49.556;6.286;2022-12-29T02:00:00;1.00;1.00;0.00
51320;PMS5003;38732;49.556;6.286;2022-12-29T02:02:32;6.00;6.00;3.40
51320;PMS5003;38732;49.556;6.286;2022-12-29T02:05:11;10.00;8.25;5.25
51320;PMS5003;38732;49.556;6.286;2022-12-29T02:07:46;10.00;9.60;5.40
51320;PMS5003;38732;49.556;6.286;2022-12-29T02:10:17;9.80;7.20;5.00
51320;PMS5003;38732;49.556;6.286;2022-12-29T02:12:48;8.20;7.60;5.00
51320;PMS5003;38732;49.556;6.286;2022-12-29T02:15:16;8.50;6.75;3.50
51320;PMS5003;38732;49.556;6.286;2022-12-29T02:18:03;9.50;7.00;5.00
51320;PMS5003;38732;49.556;6.286;2022-12-29T02:21:03;6.80;6.00;3.40
51320;PMS5003;38732;49.556;6.286;2022-12-29T02:29:40;9.60;6.20;5.00
51320;PMS5003;38732;49.556;6.286;2022-12-29T02:35:04;6.60;6.60;5.00
51320;PMS5003;38732;49.556;6.286;2022-12-29T02:40:55;6.00;6.00;3.80
51320;PMS5003;38732;49.556;6.286;2022-12-29T02:46:06;6.20;6.20;3.00
51320;PMS5003;38732;49.556;6.286;2022-12-29T02:48:38;5.20;5.20;3.00
51320;PMS5003;38732;49.556;6.286;2022-12-29T02:51:15;6.00;5.80;2.60
51320;PMS5003;38732;49.556;6.286;2022-12-29T02:53:52;3.40;3.40;3.40
51320;PMS5003;38732;49.556;6.286;2022-12-29T02:56:22;7.00;6.40;3.00
51320;PMS5003;38732;49.556;6.286;2022-12-29T02:58:50;5.75;5.75;2.50
51320;PMS5003;38732;49.556;6.286;2022-12-29T03:09:36;1.60;1.60;0.60
51320;PMS5003;38732;49.556;6.286;2022-12-29T03:15:08;3.00;3.00;1.20
51320;PMS5003;38732;49.556;6.286;2022-12-29T03:20:18;6.00;3.80;2.40
51320;PMS5003;38732;49.556;6.286;2022-12-29T03:22:51;3.00;3.00;2.60
51320;PMS5003;38732;49.556;6.286;2022-12-29T03:25:30;5.40;3.00;2.00
51320;PMS5003;38732;49.556;6.286;2022-12-29T03:28:02;4.20;4.20;2.40
51320;PMS5003;38732;49.556;6.286;2022-12-29T03:30:36;3.00;2.00;1.00
51320;PMS5003;38732;49.556;6.286;2022-12-29T03:33:08;5.80;3.80;2.00
51320;PMS5003;38732;49.556;6.286;2022-12-29T03:35:40;4.80;2.20;1.00
51320;PMS5003;38732;49.556;6.286;2022-12-29T03:38:13;3.00;3.00;2.00
51320;PMS5003;38732;49.556;6.286;2022-12-29T03:40:46;4.40;3.80;1.40
51320;PMS5003;38732;49.556;6.286;2022-12-29T03:43:18;5.00;5.00;3.00
51320;PMS5003;38732;49.556;6.286;2022-12-29T03:45:46;2.75;2.75;1.00
51320;PMS5003;38732;49.556;6.286;2022-12-29T03:48:15;2.00;0.50;0.00
51320;PMS5003;38732;49.556;6.286;2022-12-29T03:50:43;1.75;1.50;0.50
51320;PMS5003;38732;49.556;6.286;2022-12-29T03:53:11;2.00;2.00;1.00
51320;PMS5003;38732;49.556;6.286;2022-12-29T03:55:39;7.25;4.25;3.00
51320;PMS5003;38732;49.556;6.286;2022-12-29T03:58:08;2.00;2.00;1.00
51320;PMS5003;38732;49.556;6.286;2022-12-29T04:00:36;5.00;4.25;2.00
51320;PMS5003;38732;49.556;6.286;2022-12-29T04:03:04;2.00;2.00;1.00
51320;PMS5003;38732;49.556;6.286;2022-12-29T04:05:32;5.00;3.00;2.00
51320;PMS5003;38732;49.556;6.286;2022-12-29T04:08:00;3.75;3.75;3.00
51320;PMS5003;38732;49.556;6.286;2022-12-29T04:10:29;3.25;3.25;2.00
51320;PMS5003;38732;49.556;6.286;2022-12-29T04:12:57;4.50;2.75;1.50
51320;PMS5003;38732;49.556;6.286;2022-12-29T04:15:25;3.50;3.50;2.00
51320;PMS5003;38732;49.556;6.286;2022-12-29T04:17:53;2.00;2.00;1.25
51320;PMS5003;38732;49.556;6.286;2022-12-29T04:20:21;3.00;3.00;2.00
51320;PMS5003;38732;49.556;6.286;2022-12-29T04:22:56;3.75;3.75;2.00
51320;PMS5003;38732;49.556;6.286;2022-12-29T04:25:30;2.00;2.00;1.00
51320;PMS5003;38732;49.556;6.286;2022-12-29T04:27:58;3.00;2.00;1.60
51320;PMS5003;38732;49.556;6.286;2022-12-29T04:30:27;5.75;5.00;2.00
51320;PMS5003;38732;49.556;6.286;2022-12-29T04:32:55;2.00;2.00;1.00
51320;PMS5003;38732;49.556;6.286;2022-12-29T04:35:23;3.00;3.00;2.00
51320;PMS5003;38732;49.556;6.286;2022-12-29T04:37:51;6.25;2.50;2.00
51320;PMS5003;38732;49.556;6.286;2022-12-29T04:40:20;6.00;6.00;2.50
51320;PMS5003;38732;49.556;6.286;2022-12-29T04:42:48;5.00;5.00;1.75
51320;PMS5003;38732;49.556;6.286;2022-12-29T04:45:16;6.25;4.75;2.00
51320;PMS5003;38732;49.556;6.286;2022-12-29T04:47:45;5.50;5.00;2.50
51320;PMS5003;38732;49.556;6.286;2022-12-29T04:50:13;5.75;3.00;2.00
51320;PMS5003;38732;49.556;6.286;2022-12-29T04:52:41;3.50;3.50;2.00
51320;PMS5003;38732;49.556;6.286;2022-12-29T04:55:09;2.75;2.75;1.50
51320;PMS5003;38732;49.556;6.286;2022-12-29T04:57:38;3.00;3.00;2.00
51320;PMS5003;38732;49.556;6.286;2022-12-29T05:00:06;4.25;4.25;2.00
51320;PMS5003;38732;49.556;6.286;2022-12-29T05:02:35;3.00;3.00;2.20
51320;PMS5003;38732;49.556;6.286;2022-12-29T05:05:04;5.40;5.20;3.00
51320;PMS5003;38732;49.556;6.286;2022-12-29T05:07:33;3.00;3.00;1.80
51320;PMS5003;38732;49.556;6.286;2022-12-29T05:10:02;3.00;3.00;2.00
51320;PMS5003;38732;49.556;6.286;2022-12-29T05:12:31;5.75;2.75;1.00
51320;PMS5003;38732;49.556;6.286;2022-12-29T05:15:00;5.80;5.00;2.00
51320;PMS5003;38732;49.556;6.286;2022-12-29T05:17:29;5.00;5.00;2.00
51320;PMS5003;38732;49.556;6.286;2022-12-29T05:19:57;4.00;4.00;2.00
51320;PMS5003;38732;49.556;6.286;2022-12-29T05:22:25;2.50;2.50;1.00
51320;PMS5003;38732;49.556;6.286;2022-12-29T05:24:54;5.00;5.00;3.00
51320;PMS5003;38732;49.556;6.286;2022-12-29T05:27:22;2.00;1.25;0.75
51320;PMS5003;38732;49.556;6.286;2022-12-29T05:29:50;6.00;3.00;2.00
51320;PMS5003;38732;49.556;6.286;2022-12-29T05:32:19;5.00;4.00;2.00
51320;PMS5003;38732;49.556;6.286;2022-12-29T05:34:47;6.75;6.25;3.00
51320;PMS5003;38732;49.556;6.286;2022-12-29T05:37:15;5.00;5.00;3.00
51320;PMS5003;38732;49.556;6.286;2022-12-29T05:39:43;6.00;6.00;2.75
51320;PMS5003;38732;49.556;6.286;2022-12-29T05:42:11;4.50;4.50;2.00
51320;PMS5003;38732;49.556;6.286;2022-12-29T05:44:40;6.50;6.00;4.00
51320;PMS5003;38732;49.556;6.286;2022-12-29T05:47:08;7.25;5.75;2.75
51320;PMS5003;38732;49.556;6.286;2022-12-29T05:49:36;7.00;5.00;2.00
51320;PMS5003;38732;49.556;6.286;2022-12-29T05:52:04;6.75;5.00;2.00
51320;PMS5003;38732;49.556;6.286;2022-12-29T05:54:33;5.00;5.00;2.00
51320;PMS5003;38732;49.556;6.286;2022-12-29T05:57:01;4.00;3.00;1.50
51320;PMS5003;38732;49.556;6.286;2022-12-29T05:59:29;2.00;2.00;1.00
51320;PMS5003;38732;49.556;6.286;2022-12-29T06:01:57;4.25;3.50;2.00
51320;PMS5003;38732;49.556;6.286;2022-12-29T06:04:25;9.50;6.75;4.00
51320;PMS5003;38732;49.556;6.286;2022-12-29T06:06:54;2.50;2.50;2.00
51320;PMS5003;38732;49.556;6.286;2022-12-29T06:09:22;3.00;3.00;2.25
51320;PMS5003;38732;49.556;6.286;2022-12-29T06:11:50;3.00;3.00;2.00
51320;PMS5003;38732;49.556;6.286;2022-12-29T06:14:18;5.00;5.00;3.00
51320;PMS5003;38732;49.556;6.286;2022-12-29T06:16:46;5.50;5.50;3.00
51320;PMS5003;38732;49.556;6.286;2022-12-29T06:19:15;7.25;6.00;3.00
51320;PMS5003;38732;49.556;6.286;2022-12-29T06:21:43;6.75;5.75;2.75
51320;PMS5003;38732;49.556;6.286;2022-12-29T06:24:11;6.00;6.00;3.00
51320;PMS5003;38732;49.556;6.286;2022-12-29T06:26:39;6.75;6.75;3.50
51320;PMS5003;38732;49.556;6.286;2022-12-29T06:29:07;6.50;5.00;2.00
51320;PMS5003;38732;49.556;6.286;2022-12-29T06:31:36;4.00;4.00;2.00
51320;PMS5003;38732;49.556;6.286;2022-12-29T06:34:04;6.50;6.50;3.00
51320;PMS5003;38732;49.556;6.286;2022-12-29T06:36:32;5.00;5.00;2.00
51320;PMS5003;38732;49.556;6.286;2022-12-29T06:39:00;4.75;4.75;2.25
51320;PMS5003;38732;49.556;6.286;2022-12-29T06:41:29;3.00;2.00;1.00
51320;PMS5003;38732;49.556;6.286;2022-12-29T06:43:57;6.50;4.50;3.00
51320;PMS5003;38732;49.556;6.286;2022-12-29T06:46:25;4.00;3.00;1.75
51320;PMS5003;38732;49.556;6.286;2022-12-29T06:48:53;5.50;5.50;3.00
51320;PMS5003;38732;49.556;6.286;2022-12-29T06:51:22;11.00;7.75;4.00
51320;PMS5003;38732;49.556;6.286;2022-12-29T06:53:50;6.50;5.50;5.00
51320;PMS5003;38732;49.556;6.286;2022-12-29T06:56:18;5.00;5.00;3.00
51320;PMS5003;38732;49.556;6.286;2022-12-29T06:58:46;6.50;5.50;2.75
51320;PMS5003;38732;49.556;6.286;2022-12-29T07:01:14;14.75;14.75;10.00
51320;PMS5003;38732;49.556;6.286;2022-12-29T07:03:43;23.75;22.25;15.50
51320;PMS5003;38732;49.556;6.286;2022-12-29T07:06:11;29.00;28.00;20.75
51320;PMS5003;38732;49.556;6.286;2022-12-29T07:08:39;55.25;41.25;26.00
51320;PMS5003;38732;49.556;6.286;2022-12-29T07:11:07;33.25;27.75;17.25
51320;PMS5003;38732;49.556;6.286;2022-12-29T07:13:35;67.00;52.75;33.25
51320;PMS5003;38732;49.556;6.286;2022-12-29T07:16:07;55.00;47.25;28.25
51320;PMS5003;38732;49.556;6.286;2022-12-29T07:18:36;19.40;18.80;13.60
51320;PMS5003;38732;49.556;6.286;2022-12-29T07:21:05;20.75;17.00;11.00
51320;PMS5003;38732;49.556;6.286;2022-12-29T07:23:33;41.00;36.00;24.75
51320;PMS5003;38732;49.556;6.286;2022-12-29T07:26:05;25.25;23.75;15.75
51320;PMS5003;38732;49.556;6.286;2022-12-29T07:28:35;10.60;8.80;6.80
51320;PMS5003;38732;49.556;6.286;2022-12-29T07:31:04;2.25;2.00;2.00
51320;PMS5003;38732;49.556;6.286;2022-12-29T07:33:33;3.40;3.40;2.20
51320;PMS5003;38732;49.556;6.286;2022-12-29T07:36:01;6.50;5.00;3.00
51320;PMS5003;38732;49.556;6.286;2022-12-29T07:38:29;3.50;3.00;3.00
51320;PMS5003;38732;49.556;6.286;2022-12-29T07:40:58;2.75;2.75;1.00
51320;PMS5003;38732;49.556;6.286;2022-12-29T07:43:26;2.25;1.75;1.00
51320;PMS5003;38732;49.556;6.286;2022-12-29T07:45:55;1.00;1.00;0.00
51320;PMS5003;38732;49.556;6.286;2022-12-29T07:48:23;1.25;1.25;1.00
51320;PMS5003;38732;49.556;6.286;2022-12-29T07:50:52;3.00;2.00;1.00
51320;PMS5003;38732;49.556;6.286;2022-12-29T07:53:20;2.00;2.00;1.00
51320;PMS5003;38732;49.556;6.286;2022-12-29T07:55:49;5.00;5.00;3.00
51320;PMS5003;38732;49.556;6.286;2022-12-29T07:58:17;3.00;3.00;2.00
51320;PMS5003;38732;49.556;6.286;2022-12-29T08:00:45;2.75;1.00;0.00
51320;PMS5003;38732;49.556;6.286;2022-12-29T08:03:13;2.00;1.75;1.00
51320;PMS5003;38732;49.556;6.286;2022-12-29T08:05:42;0.00;0.00;0.00
51320;PMS5003;38732;49.556;6.286;2022-12-29T08:08:10;0.00;0.00;0.00
51320;PMS5003;38732;49.556;6.286;2022-12-29T08:10:38;0.00;0.00;0.00
51320;PMS5003;38732;49.556;6.286;2022-12-29T08:13:06;0.00;0.00;0.00
51320;PMS5003;38732;49.556;6.286;2022-12-29T08:15:34;1.00;1.00;0.00
51320;PMS5003;38732;49.556;6.286;2022-12-29T08:18:04;1.00;0.00;0.00
51320;PMS5003;38732;49.556;6.286;2022-12-29T08:20:33;0.00;0.00;0.00
51320;PMS5003;38732;49.556;6.286;2022-12-29T08:23:01;0.00;0.00;0.00
51320;PMS5003;38732;49.556;6.286;2022-12-29T08:25:29;0.00;0.00;0.00
51320;PMS5003;38732;49.556;6.286;2022-12-29T08:27:57;2.00;0.00;0.00
51320;PMS5003;38732;49.556;6.286;2022-12-29T08:30:26;0.00;0.00;0.00
51320;PMS5003;38732;49.556;6.286;2022-12-29T08:32:54;1.25;1.25;1.00
51320;PMS5003;38732;49.556;6.286;2022-12-29T08:35:22;1.00;0.00;0.00
51320;PMS5003;38732;49.556;6.286;2022-12-29T08:37:50;1.50;1.00;1.00
51320;PMS5003;38732;49.556;6.286;2022-12-29T08:40:18;0.00;0.00;0.00
51320;PMS5003;38732;49.556;6.286;2022-12-29T08:42:47;1.00;0.00;0.00
51320;PMS5003;38732;49.556;6.286;2022-12-29T08:45:15;0.00;0.00;0.00
51320;PMS5003;38732;49.556;6.286;2022-12-29T08:47:43;0.00;0.00;0.00
51320;PMS5003;38732;49.556;6.286;2022-12-29T08:50:11;0.25;0.25;0.00
51320;PMS5003;38732;49.556;6.286;2022-12-29T08:52:40;2.00;1.00;0.00
51320;PMS5003;38732;49.556;6.286;2022-12-29T08:55:08;0.50;0.50;0.00
51320;PMS5003;38732;49.556;6.286;2022-12-29T08:57:36;0.00;0.00;0.00
51320;PMS5003;38732;49.556;6.286;2022-12-29T09:00:05;0.00;0.00;0.00
51320;PMS5003;38732;49.556;6.286;2022-12-29T09:02:34;1.80;0.00;0.00
51320;PMS5003;38732;49.556;6.286;2022-12-29T09:05:02;1.00;1.00;0.75
51320;PMS5003;38732;49.556;6.286;2022-12-29T09:07:30;0.00;0.00;0.00
51320;PMS5003;38732;49.556;6.286;2022-12-29T09:09:58;2.00;2.00;1.00
51320;PMS5003;38732;49.556;6.286;2022-12-29T09:12:26;3.00;1.00;0.00
51320;PMS5003;38732;49.556;6.286;2022-12-29T09:14:55;0.50;0.50;0.00
51320;PMS5003;38732;49.556;6.286;2022-12-29T09:17:23;0.00;0.00;0.00
51320;PMS5003;38732;49.556;6.286;2022-12-29T09:19:51;1.75;1.75;0.75
51320;PMS5003;38732;49.556;6.286;2022-12-29T09:22:20;0.75;0.75;0.00
51320;PMS5003;38732;49.556;6.286;2022-12-29T09:24:48;1.00;1.00;1.00
51320;PMS5003;38732;49.556;6.286;2022-12-29T09:27:16;2.25;2.00;0.00
51320;PMS5003;38732;49.556;6.286;2022-12-29T09:29:44;2.25;0.00;0.00
51320;PMS5003;38732;49.556;6.286;2022-12-29T09:32:12;0.00;0.00;0.00
51320;PMS5003;38732;49.556;6.286;2022-12-29T09:34:41;1.00;1.00;0.25
51320;PMS5003;38732;49.556;6.286;2022-12-29T09:37:09;2.00;2.00;0.75
51320;PMS5003;38732;49.556;6.286;2022-12-29T09:39:37;0.50;0.50;0.00
51320;PMS5003;38732;49.556;6.286;2022-12-29T09:42:12;0.75;0.75;0.00
51320;PMS5003;38732;49.556;6.286;2022-12-29T09:44:52;1.00;1.00;0.00
51320;PMS5003;38732;49.556;6.286;2022-12-29T09:47:42;1.00;0.00;0.00
51320;PMS5003;38732;49.556;6.286;2022-12-29T09:50:32;2.00;1.40;0.40
51320;PMS5003;38732;49.556;6.286;2022-12-29T09:53:07;0.60;0.60;0.00
51320;PMS5003;38732;49.556;6.286;2022-12-29T09:55:49;0.80;0.80;0.00
51320;PMS5003;38732;49.556;6.286;2022-12-29T09:58:25;2.00;2.00;1.00
51320;PMS5003;38732;49.556;6.286;2022-12-29T10:01:05;2.40;1.40;0.00
51320;PMS5003;38732;49.556;6.286;2022-12-29T10:03:51;1.00;1.00;0.00
51320;PMS5003;38732;49.556;6.286;2022-12-29T10:12:39;1.00;1.00;0.00
51320;PMS5003;38732;49.556;6.286;2022-12-29T10:18:24;2.00;2.00;0.20
51320;PMS5003;38732;49.556;6.286;2022-12-29T10:21:28;0.40;0.40;0.00
51320;PMS5003;38732;49.556;6.286;2022-12-29T10:24:27;2.00;0.60;0.00
51320;PMS5003;38732;49.556;6.286;2022-12-29T10:26:56;1.60;1.00;0.00
51320;PMS5003;38732;49.556;6.286;2022-12-29T10:29:32;3.40;1.60;0.00
51320;PMS5003;38732;49.556;6.286;2022-12-29T10:34:53;2.00;1.00;0.00
51320;PMS5003;38732;49.556;6.286;2022-12-29T10:37:42;1.00;1.00;0.00
51320;PMS5003;38732;49.556;6.286;2022-12-29T10:40:19;1.80;1.80;1.00
51320;PMS5003;38732;49.556;6.286;2022-12-29T10:42:55;1.00;1.00;0.00
51320;PMS5003;38732;49.556;6.286;2022-12-29T10:45:27;0.80;0.40;0.00
51320;PMS5003;38732;49.556;6.286;2022-12-29T10:48:20;1.00;1.00;0.60
51320;PMS5003;38732;49.556;6.286;2022-12-29T10:50:51;2.00;1.20;0.60
51320;PMS5003;38732;49.556;6.286;2022-12-29T10:53:47;2.00;1.00;0.00
51320;PMS5003;38732;49.556;6.286;2022-12-29T10:56:25;1.80;1.80;0.00
51320;PMS5003;38732;49.556;6.286;2022-12-29T10:59:12;1.00;1.00;0.00
51320;PMS5003;38732;49.556;6.286;2022-12-29T11:07:22;0.20;0.20;0.00
51320;PMS5003;38732;49.556;6.286;2022-12-29T11:09:51;1.00;1.00;1.00
51320;PMS5003;38732;49.556;6.286;2022-12-29T11:12:29;1.00;1.00;0.00
51320;PMS5003;38732;49.556;6.286;2022-12-29T11:17:49;0.00;0.00;0.00
51320;PMS5003;38732;49.556;6.286;2022-12-29T11:20:30;0.00;0.00;0.00
51320;PMS5003;38732;49.556;6.286;2022-12-29T11:23:01;2.00;0.60;0.00
51320;PMS5003;38732;49.556;6.286;2022-12-29T11:25:30;1.40;0.20;0.00
51320;PMS5003;38732;49.556;6.286;2022-12-29T11:28:03;1.00;1.00;0.00
51320;PMS5003;38732;49.556;6.286;2022-12-29T11:30:44;1.40;0.00;0.00
51320;PMS5003;38732;49.556;6.286;2022-12-29T11:33:12;2.50;2.00;1.00
51320;PMS5003;38732;49.556;6.286;2022-12-29T11:35:41;0.00;0.00;0.00
51320;PMS5003;38732;49.556;6.286;2022-12-29T11:38:32;0.80;0.20;0.00
51320;PMS5003;38732;49.556;6.286;2022-12-29T11:41:03;2.60;1.80;0.80
51320;PMS5003;38732;49.556;6.286;2022-12-29T11:43:34;3.20;1.40;0.40
51320;PMS5003;38732;49.556;6.286;2022-12-29T11:46:07;1.20;1.20;1.00
51320;PMS5003;38732;49.556;6.286;2022-12-29T11:48:44;0.00;0.00;0.00
51320;PMS5003;38732;49.556;6.286;2022-12-29T11:51:25;2.40;1.20;0.00
51320;PMS5003;38732;49.556;6.286;2022-12-29T11:53:58;1.00;1.00;0.00
51320;PMS5003;38732;49.556;6.286;2022-12-29T11:56:34;1.00;1.00;0.00
51320;PMS5003;38732;49.556;6.286;2022-12-29T12:01:54;0.00;0.00;0.00
51320;PMS5003;38732;49.556;6.286;2022-12-29T12:04:26;1.40;1.00;0.00
51320;PMS5003;38732;49.556;6.286;2022-12-29T12:07:00;0.00;0.00;0.00
51320;PMS5003;38732;49.556;6.286;2022-12-29T12:09:34;2.00;0.00;0.00
51320;PMS5003;38732;49.556;6.286;2022-12-29T12:12:08;0.80;0.80;0.00
51320;PMS5003;38732;49.556;6.286;2022-12-29T12:14:51;2.00;1.00;1.00
51320;PMS5003;38732;49.556;6.286;2022-12-29T12:17:24;0.40;0.40;0.00
51320;PMS5003;38732;49.556;6.286;2022-12-29T12:23:07;1.00;1.00;0.00
51320;PMS5003;38732;49.556;6.286;2022-12-29T12:25:47;2.80;1.40;1.00
51320;PMS5003;38732;49.556;6.286;2022-12-29T12:28:26;3.40;1.40;0.40
51320;PMS5003;38732;49.556;6.286;2022-12-29T12:31:01;3.80;3.80;2.20
51320;PMS5003;38732;49.556;6.286;2022-12-29T12:33:35;2.60;1.00;0.00
51320;PMS5003;38732;49.556;6.286;2022-12-29T12:55:47;2.00;1.40;0.00
51320;PMS5003;38732;49.556;6.286;2022-12-29T12:58:26;0.00;0.00;0.00
51320;PMS5003;38732;49.556;6.286;2022-12-29T13:03:48;2.40;1.00;0.00
51320;PMS5003;38732;49.556;6.286;2022-12-29T13:06:40;1.60;1.00;0.20
51320;PMS5003;38732;49.556;6.286;2022-12-29T13:15:13;1.00;1.00;0.40
51320;PMS5003;38732;49.556;6.286;2022-12-29T13:21:07;1.00;1.00;0.00
51320;PMS5003;38732;49.556;6.286;2022-12-29T13:23:41;2.00;0.40;0.00
51320;PMS5003;38732;49.556;6.286;2022-12-29T13:26:32;2.40;1.40;1.00
51320;PMS5003;38732;49.556;6.286;2022-12-29T13:31:54;3.00;1.40;0.80
51320;PMS5003;38732;49.556;6.286;2022-12-29T13:34:41;1.60;0.00;0.00
51320;PMS5003;38732;49.556;6.286;2022-12-29T13:37:20;2.00;0.80;0.00
51320;PMS5003;38732;49.556;6.286;2022-12-29T13:39:57;2.00;1.00;0.00
51320;PMS5003;38732;49.556;6.286;2022-12-29T13:42:30;1.00;1.00;0.40
51320;PMS5003;38732;49.556;6.286;2022-12-29T13:45:10;1.80;1.80;0.00
51320;PMS5003;38732;49.556;6.286;2022-12-29T13:50:26;1.40;1.00;0.00
51320;PMS5003;38732;49.556;6.286;2022-12-29T13:56:11;5.60;2.00;1.00
51320;PMS5003;38732;49.556;6.286;2022-12-29T13:58:50;2.00;0.00;0.00
51320;PMS5003;38732;49.556;6.286;2022-12-29T14:01:40;1.00;1.00;0.00
51320;PMS5003;38732;49.556;6.286;2022-12-29T14:04:23;3.20;2.00;0.00
51320;PMS5003;38732;49.556;6.286;2022-12-29T14:07:01;1.80;0.60;0.00
51320;PMS5003;38732;49.556;6.286;2022-12-29T14:09:39;3.40;3.40;1.00
51320;PMS5003;38732;49.556;6.286;2022-12-29T14:12:19;0.00;0.00;0.00
51320;PMS5003;38732;49.556;6.286;2022-12-29T14:14:47;1.80;1.80;0.00
51320;PMS5003;38732;49.556;6.286;2022-12-29T14:17:18;1.50;1.50;0.50
51320;PMS5003;38732;49.556;6.286;2022-12-29T14:19:51;4.80;4.00;1.00
51320;PMS5003;38732;49.556;6.286;2022-12-29T14:22:25;1.00;1.00;0.00
51320;PMS5003;38732;49.556;6.286;2022-12-29T14:24:55;1.00;1.00;0.20
51320;PMS5003;38732;49.556;6.286;2022-12-29T14:29:57;1.00;1.00;0.00
51320;PMS5003;38732;49.556;6.286;2022-12-29T14:34:54;0.80;0.80;0.00
51320;PMS5003;38732;49.556;6.286;2022-12-29T14:37:24;1.60;1.60;0.00
51320;PMS5003;38732;49.556;6.286;2022-12-29T14:40:04;1.80;1.20;0.00
51320;PMS5003;38732;49.556;6.286;2022-12-29T14:42:33;2.60;1.60;1.00
51320;PMS5003;38732;49.556;6.286;2022-12-29T14:45:02;1.00;1.00;0.25
51320;PMS5003;38732;49.556;6.286;2022-12-29T14:47:33;0.00;0.00;0.00
51320;PMS5003;38732;49.556;6.286;2022-12-29T14:50:06;3.00;1.80;0.00
51320;PMS5003;38732;49.556;6.286;2022-12-29T14:57:44;2.80;2.00;0.00
51320;PMS5003;38732;49.556;6.286;2022-12-29T15:00:19;1.00;1.00;0.00
51320;PMS5003;38732;49.556;6.286;2022-12-29T15:03:18;1.40;1.40;0.00
51320;PMS5003;38732;49.556;6.286;2022-12-29T15:08:50;4.80;1.40;0.40
51320;PMS5003;38732;49.556;6.286;2022-12-29T15:14:27;1.20;1.00;0.00
51320;PMS5003;38732;49.556;6.286;2022-12-29T15:16:58;5.60;2.20;1.00
51320;PMS5003;38732;49.556;6.286;2022-12-29T15:19:27;2.00;2.00;1.00
51320;PMS5003;38732;49.556;6.286;2022-12-29T15:21:55;4.50;2.00;1.00
51320;PMS5003;38732;49.556;6.286;2022-12-29T15:24:25;2.40;2.00;1.00
51320;PMS5003;38732;49.556;6.286;2022-12-29T15:26:53;2.50;1.75;0.25
51320;PMS5003;38732;49.556;6.286;2022-12-29T15:32:00;9.80;6.80;4.60
51320;PMS5003;38732;49.556;6.286;2022-12-29T15:34:37;8.20;7.60;5.40
51320;PMS5003;38732;49.556;6.286;2022-12-29T15:37:06;9.50;7.50;4.50
51320;PMS5003;38732;49.556;6.286;2022-12-29T15:39:35;5.80;3.80;2.00
51320;PMS5003;38732;49.556;6.286;2022-12-29T15:42:16;9.50;5.75;2.00
51320;PMS5003;38732;49.556;6.286;2022-12-29T15:44:49;6.60;5.00;2.00
51320;PMS5003;38732;49.556;6.286;2022-12-29T15:47:19;3.60;3.60;1.20
51320;PMS5003;38732;49.556;6.286;2022-12-29T15:49:53;2.20;2.20;0.80
51320;PMS5003;38732;49.556;6.286;2022-12-29T15:52:29;4.40;4.20;1.00
51320;PMS5003;38732;49.556;6.286;2022-12-29T15:55:00;5.20;2.60;1.00
51320;PMS5003;38732;49.556;6.286;2022-12-29T15:57:30;2.20;1.80;1.00
51320;PMS5003;38732;49.556;6.286;2022-12-29T16:00:20;7.00;5.40;2.00
51320;PMS5003;38732;49.556;6.286;2022-12-29T16:02:55;10.40;7.80;3.80
51320;PMS5003;38732;49.556;6.286;2022-12-29T16:05:34;6.20;4.20;2.00
51320;PMS5003;38732;49.556;6.286;2022-12-29T16:08:15;3.40;2.40;1.00
51320;PMS5003;38732;49.556;6.286;2022-12-29T16:10:50;3.00;3.00;2.00
51320;PMS5003;38732;49.556;6.286;2022-12-29T16:13:20;5.00;3.00;1.00
51320;PMS5003;38732;49.556;6.286;2022-12-29T16:15:52;5.20;5.00;2.00
51320;PMS5003;38732;49.556;6.286;2022-12-29T16:18:28;9.20;2.00;1.60
51320;PMS5003;38732;49.556;6.286;2022-12-29T16:21:06;7.00;5.80;2.80
51320;PMS5003;38732;49.556;6.286;2022-12-29T16:23:47;5.20;3.00;1.80
51320;PMS5003;38732;49.556;6.286;2022-12-29T16:26:19;6.80;2.40;1.00
51320;PMS5003;38732;49.556;6.286;2022-12-29T16:28:50;6.40;5.80;2.00
51320;PMS5003;38732;49.556;6.286;2022-12-29T16:34:21;6.40;5.00;2.00
51320;PMS5003;38732;49.556;6.286;2022-12-29T16:37:05;7.00;6.00;4.20
51320;PMS5003;38732;49.556;6.286;2022-12-29T16:39:52;6.60;5.80;2.40
51320;PMS5003;38732;49.556;6.286;2022-12-29T16:47:48;6.80;2.00;1.00
51320;PMS5003;38732;49.556;6.286;2022-12-29T16:50:37;3.00;2.40;2.00
51320;PMS5003;38732;49.556;6.286;2022-12-29T16:55:56;1.20;1.20;1.00